Share

Norrhoeg, Sweden

Huskasnas (IHALSING2) Elev 597 ft | 62.05 °N, 15.82 °E | Change Station

Current weather conditions updated 5 seconds ago

Light Freezing Fog
Freezing Fog
30.0 °F
Feels Like 26 °F
N
3.8
Wind Variable Wind from South
Gusts 3.8 mph
Sunrise 5:20 AM
Sunset 8:34 PM
Moon Waning Gibbous

Today is forecast to be Warmer than yesterday.

Pressure 30.18 in
Visibility 0.1 miles
Clouds Overcast 100 ft
Windchill 26 °F
Dew Point 30 °F
Humidity 99%
Rainfall 0.00 in
Snow Depth Not available.
UV 0 out of 16
Pollen Not available.
Air Quality Not available.
Flu Activity Not available.
METAR ESNN 190250Z AUTO 00000KT 0200NDV R16/0700V1100N R34/0800V1100D FZFG OVC001/// M02/M02 Q1022 R16/09//95

More Conditions Fewer Conditions

Pressure 30.18 in
Visibility 0.1 miles
Clouds Overcast 100 ft
Windchill 26 °F
Dew Point 30 °F
Humidity 99%
Rainfall 0.00 in
Snow Depth Not available.
UV 0 out of 16
Pollen Not available.
Air Quality Not available.
Flu Activity Not available.
METAR ESNN 190250Z AUTO 00000KT 0200NDV R16/0700V1100N R34/0800V1100D FZFG OVC001/// M02/M02 Q1022 R16/09//95

More Conditions Fewer Conditions

10-Day Weather Forecast

Almanac

Astronomy

Apr. 19, 2014 Rise Set
Actual Time 5:20 AM CEST 8:34 PM CEST
Civil Twilight 4:28 AM CEST 9:27 PM CEST
Nautical Twilight 3:12 AM CEST 10:44 PM CEST
Astronomical Twilight 1:29 AM CEST 12:23 AM CEST
Moon 12:46 AM CEST 7:34 AM CEST
Length of Visible Light 16h 58m
Length of Day
15h 13m
Tomorrow will be 6m 1s longer.
Waning Gibbous, 83% of the Moon is Illuminated
Apr 18
Waning Gibbous
Apr 22
Last Quarter
Apr 29
New
May 6
First Quarter
May 14
Full

Yesterday's Extremes

Country Highs Country Lows

Community

  • Sunset Silhouettes
    Sunset Silhouettes
  • FL sunset Perico Isle
    FL sunset Perico Isle
  • Cloudy spring view
    Cloudy spring view
  • Old barn
    Old barn
  • What's for Lunch?
    What's for Lunch?

WunderPhotos

Upload Photos

1,702,619 photos uploaded!

WunderBlogs® & News

Nearby

Snow Depth

Not available.

Coastal Water Temperatures

Place Temperature
No Stations Reporting

Earthquake Activity

City Distance Mag. Time & Date
No recent earthquake activity has been reported nearby.
Minimum magnitude displayed is 2.5.

Nearby Weather Stations

Station Location Temp. Windchill Dew Point Humidity Wind Precip. Elev Updated Type
Huskasnas, Ramsjo 30.0 °F 26 °F 30 °F 99% South  at  3.8 mph 0.00 in / hr 597 ft 5:19 AM CEST Rapid Fire

Show More Stations Show Fewer Stations

What do you think?

We're not finished. Please let us know what you like, what you don't like, and what you are still missing.